Izium, Ukraine
Current Conditions -  °F | °C
As of 7:00 PM on Thursday 30 Oct 2014 (Local Time) from UKHH Reporting Station
Haze Haze  
Wind Chill: 44°   Ceiling: Unl
Heat Index: 46°   Visibility: 3mi
Dew Point: 18°   Wind: 4mph
Humidity: 32%   Direction: 60°ENE
Pressure: 30.21"   Gusts: NA
Location:  49.18°N, 37.3°E
Report Text: UKHH 301600Z 06002MPS 5000 HZ NSC 08/M08 Q1023 070///65 BECMG 3000
Loading
Personal Weather Stations






























Interactive Weather Map
Tropical Storm Tracking
New forecast layout! Learn more

10-Day Weather Forecast

Advertisements
Track Severe Weather on mobile